| time (UTC) | temp C | wind direction | speed KPH | gust KPH | rain 1hr cm | rain 24hr cm | rain mn cm | humidity % | barometer mb |
| 20260506045047 | 14 | 149 | 1.6 | 3.2 | 0.00 | 0.48 | 0.20 | 85 | 1002.6 |
| 20260506044547 | 14 | 149 | 1.6 | 3.2 | 0.00 | 0.48 | 0.20 | 85 | 1002.6 |
| 20260506044045 | 14 | 127 | 1.6 | 3.2 | 0.00 | 0.48 | 0.20 | 85 | 1002.5 |
| 20260506043544 | 14 | 127 | 1.6 | 3.2 | 0.00 | 0.48 | 0.20 | 85 | 1002.5 |
| 20260506043044 | 14 | 135 | 1.6 | 3.2 | 0.00 | 0.48 | 0.20 | 85 | 1002.5 |
| 20260506042542 | 14 | 135 | 1.6 | 3.2 | 0.00 | 0.48 | 0.20 | 85 | 1002.5 |
| 20260506042042 | 14 | 126 | 1.6 | 1.6 | 0.00 | 0.48 | 0.20 | 84 | 1002.5 |
| 20260506041540 | 14 | 126 | 1.6 | 1.6 | 0.00 | 0.48 | 0.20 | 84 | 1002.5 |
| 20260506041040 | 14 | 135 | 1.6 | 1.6 | 0.00 | 0.48 | 0.20 | 83 | 1002.4 |
| 20260506040539 | 14 | 135 | 1.6 | 1.6 | 0.00 | 0.48 | 0.20 | 83 | 1002.4 |
| 20260506040037 | 15 | 126 | 1.6 | 4.8 | 0.00 | 0.48 | 0.20 | 83 | 1002.4 |
| 20260506035535 | 15 | 126 | 1.6 | 4.8 | 0.00 | 0.48 | 0.20 | 83 | 1002.4 |
| 20260506035034 | 15 | 90 | 1.6 | 1.6 | 0.00 | 0.48 | 0.20 | 83 | 1002.4 |
| 20260506034534 | 15 | 90 | 1.6 | 1.6 | 0.00 | 0.48 | 0.20 | 83 | 1002.4 |
| 20260506034033 | 15 | 90 | 1.6 | 1.6 | 0.00 | 0.48 | 0.20 | 82 | 1002.4 |
| 20260506033532 | 15 | 90 | 1.6 | 1.6 | 0.00 | 0.48 | 0.20 | 82 | 1002.4 |
| 20260506033031 | 15 | 90 | 1.6 | 1.6 | 0.00 | 0.48 | 0.20 | 83 | 1002.5 |
| 20260506032530 | 15 | 90 | 1.6 | 1.6 | 0.00 | 0.48 | 0.20 | 83 | 1002.5 |
| 20260506032028 | 15 | 90 | 1.6 | 1.6 | 0.00 | 0.46 | 0.20 | 82 | 1002.5 |
| 20260506031528 | 15 | 90 | 1.6 | 1.6 | 0.00 | 0.46 | 0.20 | 82 | 1002.5 |
| 20260506031027 | 15 | 125 | 1.6 | 1.6 | 0.00 | 0.46 | 0.20 | 82 | 1002.5 |
| 20260506030525 | 15 | 125 | 1.6 | 1.6 | 0.00 | 0.46 | 0.20 | 82 | 1002.5 |
| 20260506030025 | 15 | 125 | 1.6 | 1.6 | 0.00 | 0.46 | 0.20 | 82 | 1002.5 |
| 20260506025525 | 15 | 90 | 1.6 | 1.6 | 0.00 | 0.46 | 0.20 | 82 | 1002.6 |
| 20260506025023 | 15 | 90 | 1.6 | 1.6 | 0.00 | 0.46 | 0.20 | 82 | 1002.6 |
| 20260506024522 | 15 | 90 | 1.6 | 1.6 | 0.00 | 0.46 | 0.20 | 82 | 1002.7 |
| 20260506024020 | 15 | 90 | 1.6 | 1.6 | 0.00 | 0.46 | 0.20 | 82 | 1002.7 |
| 20260506023520 | 15 | 90 | 1.6 | 1.6 | 0.00 | 0.46 | 0.20 | 82 | 1002.7 |
| 20260506023019 | 15 | 90 | 1.6 | 1.6 | 0.00 | 0.46 | 0.20 | 82 | 1002.7 |
| 20260506022518 | 15 | 90 | 1.6 | 1.6 | 0.00 | 0.46 | 0.20 | 82 | 1002.9 |
| 20260506022016 | 15 | 90 | 1.6 | 1.6 | 0.00 | 0.46 | 0.20 | 82 | 1002.9 |
| 20260506021516 | 15 | 90 | 1.6 | 3.2 | 0.00 | 0.46 | 0.20 | 82 | 1003.0 |
| 20260506021014 | 15 | 90 | 1.6 | 3.2 | 0.00 | 0.46 | 0.20 | 82 | 1003.0 |
| 20260506020013 | 15 | 90 | 1.6 | 3.2 | 0.00 | 0.46 | 0.20 | 82 | 1003.1 |
| 20260506015011 | 15 | 90 | 1.6 | 1.6 | 0.00 | 0.46 | 0.20 | 82 | 1003.2 |
| 20260506014009 | 15 | 90 | 1.6 | 1.6 | 0.00 | 0.46 | 0.20 | 82 | 1003.4 |
| 20260506013007 | 15 | 90 | 1.6 | 1.6 | 0.00 | 0.46 | 0.20 | 82 | 1003.4 |
| 20260506012005 | 15 | 90 | 1.6 | 3.2 | 0.00 | 0.46 | 0.20 | 82 | 1003.5 |
| 20260506011003 | 15 | 90 | 1.6 | 3.2 | 0.03 | 0.46 | 0.20 | 82 | 1003.5 |
| 20260506010001 | 15 | 59 | 1.6 | 3.2 | 0.03 | 0.46 | 0.20 | 82 | 1003.5 |
| 20260506005500 | 15 | 135 | 1.6 | 3.2 | 0.03 | 0.46 | 0.20 | 82 | 1003.6 |
| 20260506004959 | 15 | 135 | 1.6 | 3.2 | 0.03 | 0.46 | 0.20 | 82 | 1003.6 |
| 20260506004458 | 15 | 90 | 1.6 | 1.6 | 0.03 | 0.46 | 0.20 | 82 | 1003.7 |
| 20260506003957 | 15 | 90 | 1.6 | 1.6 | 0.03 | 0.46 | 0.20 | 82 | 1003.7 |
| 20260506003455 | 15 | 90 | 1.6 | 3.2 | 0.05 | 0.46 | 0.20 | 82 | 1003.8 |
| 20260506002955 | 15 | 90 | 1.6 | 3.2 | 0.05 | 0.46 | 0.20 | 82 | 1003.8 |
| 20260506002454 | 15 | 90 | 1.6 | 1.6 | 0.03 | 0.43 | 0.18 | 82 | 1003.9 |
| 20260506001954 | 15 | 90 | 1.6 | 1.6 | 0.03 | 0.43 | 0.18 | 82 | 1003.9 |
| 20260506001452 | 15 | 90 | 1.6 | 1.6 | 0.03 | 0.43 | 0.18 | 82 | 1004.0 |
| 20260506000951 | 15 | 90 | 1.6 | 1.6 | 0.03 | 0.43 | 0.18 | 82 | 1004.0 |
| 20260506000449 | 15 | 56 | 1.6 | 4.8 | 0.03 | 0.43 | 0.18 | 82 | 1004.1 |
| 20260505235949 | 15 | 56 | 1.6 | 4.8 | 0.03 | 0.43 | 0.18 | 82 | 1004.1 |
| 20260505235448 | 15 | 135 | 1.6 | 1.6 | 0.03 | 0.43 | 0.15 | 81 | 1004.2 |
| 20260505234947 | 15 | 135 | 1.6 | 1.6 | 0.03 | 0.43 | 0.15 | 81 | 1004.2 |
| 20260505234445 | 16 | 90 | 1.6 | 3.2 | 0.03 | 0.43 | 0.15 | 80 | 1004.1 |
| 20260505233945 | 16 | 90 | 1.6 | 3.2 | 0.03 | 0.43 | 0.15 | 80 | 1004.1 |
| 20260505233444 | 16 | 90 | 1.6 | 3.2 | 0.03 | 0.41 | 0.15 | 81 | 1004.0 |
| 20260505232943 | 16 | 90 | 1.6 | 3.2 | 0.03 | 0.41 | 0.15 | 81 | 1004.0 |
| 20260505232442 | 16 | 90 | 1.6 | 1.6 | 0.03 | 0.41 | 0.15 | 81 | 1003.9 |
| 20260505231941 | 16 | 90 | 1.6 | 1.6 | 0.03 | 0.41 | 0.15 | 81 | 1003.9 |
| 20260505231440 | 16 | 90 | 1.6 | 3.2 | 0.08 | 0.41 | 0.15 | 81 | 1004.1 |
| 20260505230939 | 16 | 90 | 1.6 | 3.2 | 0.08 | 0.41 | 0.15 | 81 | 1004.1 |
| 20260505230438 | 16 | 90 | 1.6 | 1.6 | 0.15 | 0.41 | 0.15 | 81 | 1004.2 |
| 20260505225937 | 16 | 90 | 1.6 | 1.6 | 0.15 | 0.41 | 0.15 | 81 | 1004.2 |
| 20260505225436 | 16 | 146 | 1.6 | 1.6 | 0.20 | 0.41 | 0.15 | 81 | 1004.3 |
| 20260505224935 | 16 | 146 | 1.6 | 1.6 | 0.20 | 0.41 | 0.15 | 81 | 1004.3 |
| 20260505224434 | 16 | 135 | 1.6 | 1.6 | 0.25 | 0.41 | 0.13 | 79 | 1004.5 |
| 20260505223932 | 16 | 135 | 1.6 | 1.6 | 0.25 | 0.41 | 0.13 | 79 | 1004.5 |
| 20260505223432 | 16 | 90 | 1.6 | 3.2 | 0.28 | 0.38 | 0.13 | 79 | 1004.7 |
| 20260505222931 | 16 | 90 | 1.6 | 3.2 | 0.28 | 0.38 | 0.13 | 79 | 1004.7 |
| 20260505222430 | 16 | 90 | 1.6 | 1.6 | 0.33 | 0.38 | 0.13 | 79 | 1005.0 |
| 20260505221928 | 16 | 90 | 1.6 | 1.6 | 0.33 | 0.38 | 0.13 | 79 | 1005.0 |
| 20260505221428 | 16 | 54 | 1.6 | 3.2 | 0.30 | 0.33 | 0.08 | 79 | 1005.2 |
| 20260505220927 | 16 | 54 | 1.6 | 3.2 | 0.30 | 0.33 | 0.08 | 79 | 1005.2 |
| 20260505220427 | 16 | 90 | 1.6 | 1.6 | 0.25 | 0.25 | 0.00 | 78 | 1005.2 |
| 20260505215925 | 16 | 90 | 1.6 | 1.6 | 0.25 | 0.25 | 0.25 | 78 | 1005.2 |
| 20260505215424 | 16 | 45 | 1.6 | 4.8 | 0.20 | 0.20 | 0.20 | 77 | 1005.4 |
| 20260505214922 | 16 | 45 | 1.6 | 4.8 | 0.20 | 0.20 | 0.20 | 77 | 1005.4 |
| 20260505214422 | 17 | 161 | 1.6 | 3.2 | 0.15 | 0.15 | 0.15 | 76 | 1005.5 |
| 20260505213921 | 17 | 161 | 1.6 | 3.2 | 0.15 | 0.15 | 0.15 | 76 | 1005.5 |
| 20260505213419 | 17 | 90 | 1.6 | 1.6 | 0.10 | 0.10 | 0.10 | 75 | 1005.5 |
| 20260505212949 | 17 | 90 | 1.6 | 1.6 | 0.10 | 0.10 | 0.10 | 75 | 1005.5 |
| 20260505212418 | 17 | 164 | 1.6 | 1.6 | 0.05 | 0.05 | 0.05 | 74 | 1005.7 |
| 20260505211917 | 17 | 164 | 1.6 | 1.6 | 0.05 | 0.05 | 0.05 | 74 | 1005.7 |
| 20260505211416 | 17 | 171 | 1.6 | 1.6 | 0.03 | 0.03 | 0.03 | 72 | 1005.7 |
| 20260505210915 | 17 | 171 | 1.6 | 1.6 | 0.03 | 0.03 | 0.03 | 72 | 1005.7 |
| 20260505210414 | 18 | 171 | 1.6 | 3.2 | 0.00 | 0.00 | 0.00 | 72 | 1005.5 |
| 20260505205912 | 18 | 171 | 1.6 | 3.2 | 0.00 | 0.00 | 0.00 | 72 | 1005.5 |
| 20260505205412 | 18 | 156 | 1.6 | 1.6 | 0.00 | 0.00 | 0.00 | 69 | 1005.4 |
| 20260505204911 | 18 | 156 | 1.6 | 1.6 | 0.00 | 0.00 | 0.00 | 69 | 1005.4 |
| 20260505204410 | 18 | 172 | 1.6 | 1.6 | 0.00 | 0.00 | 0.00 | 68 | 1005.4 |
| 20260505203909 | 18 | 172 | 1.6 | 1.6 | 0.00 | 0.00 | 0.00 | 68 | 1005.4 |
| 20260505203408 | 18 | 168 | 1.6 | 1.6 | 0.00 | 0.00 | 0.00 | 67 | 1005.3 |
| 20260505202907 | 18 | 168 | 1.6 | 1.6 | 0.00 | 0.00 | 0.00 | 67 | 1005.3 |
| 20260505202406 | 18 | 169 | 1.6 | 3.2 | 0.00 | 0.00 | 0.00 | 67 | 1004.9 |
| 20260505201906 | 18 | 169 | 1.6 | 3.2 | 0.00 | 0.00 | 0.00 | 67 | 1004.9 |
| 20260505201404 | 18 | 168 | 1.6 | 1.6 | 0.00 | 0.00 | 0.00 | 67 | 1004.7 |
| 20260505200903 | 18 | 168 | 1.6 | 1.6 | 0.00 | 0.00 | 0.00 | 67 | 1004.7 |
| 20260505200402 | 18 | 176 | 1.6 | 3.2 | 0.00 | 0.00 | 0.00 | 66 | 1004.6 |
| 20260505195901 | 18 | 176 | 1.6 | 3.2 | 0.00 | 0.00 | 0.00 | 66 | 1004.6 |
| 20260505195400 | 18 | 173 | 1.6 | 1.6 | 0.00 | 0.00 | 0.00 | 66 | 1004.2 |
| 20260505194859 | 18 | 173 | 1.6 | 1.6 | 0.00 | 0.00 | 0.00 | 66 | 1004.2 |
| 20260505194358 | 18 | 163 | 1.6 | 3.2 | 0.00 | 0.00 | 0.00 | 66 | 1004.4 |
| 20260505193857 | 18 | 163 | 1.6 | 3.2 | 0.00 | 0.00 | 0.00 | 66 | 1004.4 |
| 20260505193356 | 18 | 167 | 1.6 | 3.2 | 0.00 | 0.00 | 0.00 | 66 | 1004.6 |
| 20260505192854 | 18 | 167 | 1.6 | 3.2 | 0.00 | 0.00 | 0.00 | 66 | 1004.6 |
| 20260505192354 | 18 | 163 | 1.6 | 3.2 | 0.00 | 0.00 | 0.00 | 66 | 1004.7 |
| 20260505191853 | 18 | 163 | 1.6 | 3.2 | 0.00 | 0.00 | 0.00 | 66 | 1004.7 |
| 20260505191352 | 18 | 161 | 1.6 | 1.6 | 0.00 | 0.00 | 0.00 | 67 | 1004.7 |
| 20260505190851 | 18 | 161 | 1.6 | 1.6 | 0.00 | 0.00 | 0.00 | 67 | 1004.7 |
| 20260505190351 | 18 | 166 | 1.6 | 3.2 | 0.00 | 0.00 | 0.00 | 67 | 1004.8 |
| 20260505185849 | 18 | 166 | 1.6 | 3.2 | 0.00 | 0.00 | 0.00 | 67 | 1004.8 |
| 20260505185348 | 19 | 174 | 1.6 | 3.2 | 0.00 | 0.00 | 0.00 | 66 | 1004.9 |
| 20260505184847 | 19 | 174 | 1.6 | 3.2 | 0.00 | 0.00 | 0.00 | 66 | 1004.9 |
| 20260505184345 | 19 | 167 | 1.6 | 1.6 | 0.00 | 0.00 | 0.00 | 65 | 1004.9 |
| 20260505183845 | 19 | 167 | 1.6 | 1.6 | 0.00 | 0.00 | 0.00 | 65 | 1004.9 |
| 20260505183344 | 19 | 173 | 1.6 | 1.6 | 0.00 | 0.00 | 0.00 | 65 | 1004.9 |
| 20260505182843 | 19 | 173 | 1.6 | 1.6 | 0.00 | 0.00 | 0.00 | 65 | 1004.9 |
| 20260505182341 | 19 | 174 | 1.6 | 3.2 | 0.00 | 0.00 | 0.00 | 63 | 1005.0 |
| 20260505181841 | 19 | 174 | 1.6 | 3.2 | 0.00 | 0.00 | 0.00 | 63 | 1005.0 |
| 20260505181340 | 20 | 169 | 1.6 | 3.2 | 0.00 | 0.00 | 0.00 | 63 | 1005.0 |
| 20260505180840 | 20 | 169 | 1.6 | 3.2 | 0.00 | 0.00 | 0.00 | 63 | 1005.0 |
| 20260505180339 | 20 | 180 | 1.6 | 1.6 | 0.00 | 0.00 | 0.00 | 63 | 1005.1 |
| 20260505175837 | 20 | 180 | 1.6 | 1.6 | 0.00 | 0.00 | 0.00 | 63 | 1005.1 |
| 20260505175336 | 20 | 176 | 1.6 | 1.6 | 0.00 | 0.00 | 0.00 | 62 | 1005.1 |
| 20260505174835 | 20 | 176 | 1.6 | 1.6 | 0.00 | 0.00 | 0.00 | 62 | 1005.1 |
| 20260505174334 | 20 | 176 | 1.6 | 3.2 | 0.00 | 0.00 | 0.00 | 62 | 1005.1 |
| 20260505173833 | 20 | 176 | 1.6 | 3.2 | 0.00 | 0.00 | 0.00 | 62 | 1005.1 |
| 20260505173331 | 20 | 180 | 1.6 | 1.6 | 0.00 | 0.00 | 0.00 | 61 | 1005.2 |
| 20260505172832 | 20 | 180 | 1.6 | 1.6 | 0.00 | 0.00 | 0.00 | 61 | 1005.2 |
| 20260505172331 | 20 | 182 | 1.6 | 3.2 | 0.00 | 0.00 | 0.00 | 61 | 1005.2 |
| 20260505171829 | 20 | 182 | 1.6 | 3.2 | 0.00 | 0.00 | 0.00 | 61 | 1005.2 |
| 20260505171327 | 21 | 188 | 1.6 | 3.2 | 0.00 | 0.00 | 0.00 | 61 | 1005.3 |
| 20260505170828 | 21 | 188 | 1.6 | 3.2 | 0.00 | 0.00 | 0.00 | 61 | 1005.3 |
| 20260505170326 | 21 | 191 | 1.6 | 3.2 | 0.00 | 0.00 | 0.00 | 60 | 1005.4 |
| 20260505165825 | 21 | 191 | 1.6 | 3.2 | 0.00 | 0.00 | 0.00 | 60 | 1005.4 |
| 20260505165323 | 21 | 191 | 1.6 | 3.2 | 0.00 | 0.00 | 0.00 | 61 | 1005.3 |
| 20260505164823 | 21 | 191 | 1.6 | 3.2 | 0.00 | 0.00 | 0.00 | 61 | 1005.3 |
| 20260505164323 | 21 | 188 | 1.6 | 3.2 | 0.00 | 0.00 | 0.00 | 60 | 1005.3 |
| 20260505163821 | 21 | 188 | 1.6 | 3.2 | 0.00 | 0.00 | 0.00 | 60 | 1005.3 |
| 20260505163320 | 21 | 190 | 1.6 | 1.6 | 0.00 | 0.00 | 0.00 | 59 | 1005.4 |
| 20260505162818 | 21 | 190 | 1.6 | 1.6 | 0.00 | 0.00 | 0.00 | 59 | 1005.4 |
| 20260505162318 | 21 | 191 | 1.6 | 3.2 | 0.00 | 0.00 | 0.00 | 59 | 1005.5 |
| 20260505161817 | 21 | 191 | 1.6 | 3.2 | 0.00 | 0.00 | 0.00 | 59 | 1005.5 |
| 20260505161316 | 21 | 196 | 1.6 | 4.8 | 0.00 | 0.00 | 0.00 | 59 | 1005.5 |
| 20260505160815 | 21 | 196 | 1.6 | 4.8 | 0.00 | 0.00 | 0.00 | 59 | 1005.5 |
| 20260505160314 | 21 | 191 | 1.6 | 3.2 | 0.00 | 0.00 | 0.00 | 59 | 1005.7 |
| 20260505153308 | 22 | 198 | 1.6 | 3.2 | 0.00 | 0.00 | 0.00 | 59 | 1006.0 |
| 20260505152806 | 22 | 198 | 1.6 | 3.2 | 0.00 | 0.00 | 0.00 | 59 | 1006.0 |
| 20260505152305 | 22 | 194 | 1.6 | 3.2 | 0.00 | 0.00 | 0.00 | 59 | 1006.0 |
| 20260505151805 | 22 | 194 | 1.6 | 3.2 | 0.00 | 0.00 | 0.00 | 59 | 1006.0 |
| 20260505151304 | 22 | 188 | 1.6 | 3.2 | 0.00 | 0.00 | 0.00 | 59 | 1006.2 |
| 20260505150803 | 22 | 188 | 1.6 | 3.2 | 0.00 | 0.00 | 0.00 | 59 | 1006.2 |
| 20260505150302 | 22 | 188 | 1.6 | 3.2 | 0.00 | 0.00 | 0.00 | 59 | 1006.3 |
| 20260505140250 | 22 | 191 | 1.6 | 4.8 | 0.00 | 0.00 | 0.00 | 60 | 1006.7 |
| 20260505130239 | 21 | 193 | 1.6 | 3.2 | 0.00 | 0.00 | 0.00 | 62 | 1007.0 |
| 20260505124735 | 21 | 196 | 1.6 | 1.6 | 0.00 | 0.00 | 0.00 | 64 | 1007.3 |
| 20260505124234 | 21 | 196 | 1.6 | 1.6 | 0.00 | 0.00 | 0.00 | 64 | 1007.3 |
| 20260505123733 | 21 | 200 | 1.6 | 3.2 | 0.00 | 0.00 | 0.00 | 65 | 1007.3 |
| 20260505123232 | 21 | 200 | 1.6 | 3.2 | 0.00 | 0.00 | 0.00 | 65 | 1007.3 |
| 20260505122731 | 21 | 188 | 1.6 | 3.2 | 0.00 | 0.00 | 0.00 | 65 | 1007.4 |
| 20260505122230 | 21 | 188 | 1.6 | 3.2 | 0.00 | 0.00 | 0.00 | 65 | 1007.4 |
| 20260505121729 | 20 | 188 | 1.6 | 3.2 | 0.00 | 0.00 | 0.00 | 65 | 1007.5 |
| 20260505121228 | 20 | 188 | 1.6 | 3.2 | 0.00 | 0.00 | 0.00 | 65 | 1007.5 |
| 20260505120727 | 20 | 201 | 1.6 | 1.6 | 0.00 | 0.00 | 0.00 | 66 | 1007.6 |
| 20260505120226 | 20 | 201 | 1.6 | 1.6 | 0.00 | 0.00 | 0.00 | 66 | 1007.6 |
| 20260505115725 | 20 | 185 | 1.6 | 3.2 | 0.00 | 0.00 | 0.00 | 68 | 1007.6 |
| 20260505115223 | 20 | 185 | 1.6 | 3.2 | 0.00 | 0.00 | 0.00 | 68 | 1007.6 |
| 20260505114723 | 20 | 180 | 1.6 | 3.2 | 0.00 | 0.00 | 0.00 | 68 | 1007.6 |
| 20260505114222 | 20 | 180 | 1.6 | 3.2 | 0.00 | 0.00 | 0.00 | 68 | 1007.6 |
| 20260505113720 | 20 | 176 | 1.6 | 1.6 | 0.00 | 0.00 | 0.00 | 69 | 1007.6 |
| 20260505113220 | 20 | 176 | 1.6 | 1.6 | 0.00 | 0.00 | 0.00 | 69 | 1007.6 |
| 20260505112719 | 20 | 177 | 1.6 | 3.2 | 0.00 | 0.00 | 0.00 | 69 | 1007.7 |
| 20260505112218 | 20 | 177 | 1.6 | 3.2 | 0.00 | 0.00 | 0.00 | 69 | 1007.7 |
| 20260505111716 | 19 | 180 | 1.6 | 3.2 | 0.00 | 0.00 | 0.00 | 69 | 1007.9 |
| 20260505111216 | 19 | 180 | 1.6 | 3.2 | 0.00 | 0.00 | 0.00 | 69 | 1007.9 |
| 20260505110716 | 19 | 173 | 1.6 | 1.6 | 0.00 | 0.00 | 0.00 | 70 | 1007.9 |
| 20260505110214 | 19 | 173 | 1.6 | 1.6 | 0.00 | 0.00 | 0.00 | 70 | 1007.9 |
| 20260505102207 | 18 | 165 | 1.6 | 3.2 | 0.00 | 0.00 | 0.00 | 72 | 1008.5 |
| 20260505101705 | 18 | 171 | 1.6 | 1.6 | 0.00 | 0.00 | 0.00 | 72 | 1008.4 |
| 20260505101204 | 18 | 171 | 1.6 | 1.6 | 0.00 | 0.00 | 0.00 | 72 | 1008.4 |
| 20260505100713 | 18 | 165 | 1.6 | 3.2 | 0.00 | 0.00 | 0.00 | 73 | 1008.4 |
| 20260505100203 | 18 | 165 | 1.6 | 3.2 | 0.00 | 0.00 | 0.00 | 73 | 1008.4 |
| 20260505095701 | 18 | 167 | 1.6 | 1.6 | 0.00 | 0.00 | 0.00 | 74 | 1008.4 |
| 20260505095200 | 18 | 167 | 1.6 | 1.6 | 0.00 | 0.00 | 0.00 | 74 | 1008.4 |
| 20260505094659 | 18 | 166 | 1.6 | 1.6 | 0.00 | 0.00 | 0.00 | 74 | 1008.6 |
| 20260505094158 | 18 | 166 | 1.6 | 1.6 | 0.00 | 0.00 | 0.00 | 74 | 1008.6 |
| 20260505093656 | 18 | 171 | 1.6 | 3.2 | 0.00 | 0.00 | 0.00 | 75 | 1008.6 |
| 20260505093156 | 18 | 171 | 1.6 | 3.2 | 0.00 | 0.00 | 0.00 | 75 | 1008.6 |
| 20260505092655 | 17 | 163 | 1.6 | 3.2 | 0.00 | 0.00 | 0.00 | 75 | 1008.5 |
| 20260505092155 | 17 | 163 | 1.6 | 3.2 | 0.00 | 0.00 | 0.00 | 75 | 1008.5 |
| 20260505091653 | 17 | 165 | 1.6 | 3.2 | 0.00 | 0.00 | 0.00 | 75 | 1008.5 |
| 20260505091152 | 17 | 165 | 1.6 | 3.2 | 0.00 | 0.00 | 0.00 | 75 | 1008.5 |
| 20260505090651 | 17 | 161 | 1.6 | 3.2 | 0.00 | 0.00 | 0.00 | 75 | 1008.5 |
| 20260505090150 | 17 | 161 | 1.6 | 3.2 | 0.00 | 0.00 | 0.00 | 75 | 1008.5 |
| 20260505085649 | 18 | 159 | 1.6 | 1.6 | 0.00 | 0.00 | 0.00 | 75 | 1008.6 |
| 20260505085148 | 18 | 159 | 1.6 | 1.6 | 0.00 | 0.00 | 0.00 | 75 | 1008.6 |
| 20260505084647 | 18 | 154 | 1.6 | 1.6 | 0.00 | 0.00 | 0.00 | 75 | 1008.4 |
| 20260505084146 | 18 | 154 | 1.6 | 1.6 | 0.00 | 0.00 | 0.00 | 75 | 1008.4 |
| 20260505083645 | 18 | 171 | 1.6 | 1.6 | 0.00 | 0.00 | 0.00 | 74 | 1008.3 |
| 20260505083144 | 18 | 171 | 1.6 | 1.6 | 0.00 | 0.00 | 0.00 | 74 | 1008.3 |
| 20260505082642 | 17 | 164 | 1.6 | 3.2 | 0.00 | 0.00 | 0.00 | 74 | 1008.3 |
| 20260505082142 | 17 | 164 | 1.6 | 3.2 | 0.00 | 0.00 | 0.00 | 74 | 1008.3 |
| 20260505081641 | 17 | 167 | 1.6 | 3.2 | 0.00 | 0.00 | 0.00 | 76 | 1008.2 |
| 20260505081140 | 17 | 167 | 1.6 | 3.2 | 0.00 | 0.00 | 0.00 | 76 | 1008.2 |
| 20260505080639 | 17 | 171 | 1.6 | 1.6 | 0.00 | 0.00 | 0.00 | 78 | 1008.2 |
| 20260505080139 | 17 | 171 | 1.6 | 1.6 | 0.00 | 0.00 | 0.00 | 78 | 1008.2 |
| 20260505075638 | 17 | 125 | 1.6 | 1.6 | 0.00 | 0.00 | 0.00 | 79 | 1008.2 |
| 20260505075136 | 17 | 125 | 1.6 | 1.6 | 0.00 | 0.00 | 0.00 | 79 | 1008.2 |
| 20260505074635 | 16 | 90 | 1.6 | 1.6 | 0.00 | 0.00 | 0.00 | 79 | 1008.4 |
| 20260505074134 | 16 | 90 | 1.6 | 1.6 | 0.00 | 0.00 | 0.00 | 79 | 1008.4 |
| 20260505073634 | 16 | 90 | 1.6 | 1.6 | 0.00 | 0.00 | 0.00 | 79 | 1008.4 |
| 20260505073133 | 16 | 90 | 1.6 | 1.6 | 0.00 | 0.00 | 0.00 | 79 | 1008.4 |
| 20260505072631 | 16 | 90 | 1.6 | 1.6 | 0.00 | 0.00 | 0.00 | 79 | 1008.4 |
| 20260505072130 | 16 | 90 | 1.6 | 1.6 | 0.00 | 0.00 | 0.00 | 79 | 1008.4 |
| 20260505071630 | 16 | 90 | 1.6 | 1.6 | 0.00 | 0.00 | 0.00 | 79 | 1008.5 |
| 20260505071128 | 16 | 90 | 1.6 | 1.6 | 0.00 | 0.00 | 0.00 | 79 | 1008.5 |
| 20260505070626 | 16 | 90 | 1.6 | 1.6 | 0.00 | 0.00 | 0.00 | 79 | 1008.5 |
| 20260505070127 | 16 | 90 | 1.6 | 1.6 | 0.00 | 0.00 | 0.00 | 79 | 1008.5 |
| 20260505065625 | 16 | 90 | 1.6 | 1.6 | 0.00 | 0.00 | 0.00 | 79 | 1008.5 |
| 20260505065125 | 16 | 90 | 1.6 | 1.6 | 0.00 | 0.00 | 0.00 | 79 | 1008.5 |
| 20260505064623 | 16 | 90 | 1.6 | 1.6 | 0.00 | 0.00 | 0.00 | 79 | 1008.6 |
| 20260505064122 | 16 | 90 | 1.6 | 1.6 | 0.00 | 0.00 | 0.00 | 79 | 1008.6 |
| 20260505063620 | 16 | 90 | 1.6 | 1.6 | 0.00 | 0.00 | 0.00 | 79 | 1008.7 |
| 20260505063121 | 16 | 90 | 1.6 | 1.6 | 0.00 | 0.00 | 0.00 | 79 | 1008.7 |
| 20260505062619 | 16 | 90 | 1.6 | 3.2 | 0.00 | 0.00 | 0.00 | 80 | 1008.8 |
| 20260505062118 | 16 | 90 | 1.6 | 3.2 | 0.00 | 0.00 | 0.00 | 80 | 1008.8 |
| 20260505061616 | 15 | 90 | 1.6 | 1.6 | 0.00 | 0.00 | 0.00 | 80 | 1008.9 |
| 20260505061116 | 15 | 90 | 1.6 | 1.6 | 0.00 | 0.00 | 0.00 | 80 | 1008.9 |
| 20260505060616 | 15 | 90 | 1.6 | 3.2 | 0.00 | 0.00 | 0.00 | 80 | 1008.9 |
| 20260505060114 | 15 | 90 | 1.6 | 3.2 | 0.00 | 0.00 | 0.00 | 80 | 1008.9 |
| 20260505055612 | 16 | 90 | 1.6 | 1.6 | 0.00 | 0.00 | 0.00 | 79 | 1008.9 |
| 20260505055111 | 16 | 90 | 1.6 | 1.6 | 0.00 | 0.00 | 0.00 | 79 | 1008.9 |
| 20260505054612 | 16 | 90 | 1.6 | 1.6 | 0.00 | 0.00 | 0.00 | 79 | 1008.8 |
| 20260505054111 | 16 | 90 | 1.6 | 1.6 | 0.00 | 0.00 | 0.00 | 79 | 1008.8 |
| 20260505053609 | 16 | 90 | 1.6 | 1.6 | 0.00 | 0.00 | 0.00 | 79 | 1008.8 |
| 20260505053108 | 16 | 90 | 1.6 | 1.6 | 0.00 | 0.00 | 0.00 | 79 | 1008.8 |
| 20260505052607 | 16 | 90 | 1.6 | 1.6 | 0.00 | 0.00 | 0.00 | 79 | 1008.9 |
| 20260505052105 | 16 | 90 | 1.6 | 1.6 | 0.00 | 0.00 | 0.00 | 79 | 1008.9 |
| 20260505051605 | 16 | 90 | 1.6 | 1.6 | 0.00 | 0.00 | 0.00 | 79 | 1008.8 |
| 20260505051104 | 16 | 90 | 1.6 | 1.6 | 0.00 | 0.00 | 0.00 | 79 | 1008.8 |
| 20260505050603 | 16 | 90 | 1.6 | 1.6 | 0.00 | 0.00 | 0.00 | 79 | 1008.7 |